createdAt,value
2023-03-08T00:01:08.961Z,73.92
2023-03-08T00:03:35.448Z,74.45
2023-03-08T00:06:06.245Z,74.56
2023-03-08T00:08:33.355Z,74.98
2023-03-08T00:10:59.917Z,74.76
2023-03-08T00:13:26.443Z,75.14
2023-03-08T00:15:52.898Z,74.86
2023-03-08T00:18:19.285Z,74.73
2023-03-08T00:20:45.699Z,74.89
2023-03-08T00:23:14.727Z,74.96
2023-03-08T00:25:41.338Z,74.49
2023-03-08T00:28:07.792Z,74.70
2023-03-08T00:30:34.146Z,75.54
2023-03-08T00:33:00.721Z,75.44
2023-03-08T00:35:27.188Z,74.73
2023-03-08T00:37:53.701Z,75.07
2023-03-08T00:40:20.081Z,74.91
2023-03-08T00:42:46.524Z,74.98
2023-03-08T00:45:16.264Z,74.95
2023-03-08T00:47:42.696Z,75.07
2023-03-08T00:50:09.603Z,74.95
2023-03-08T00:52:36.240Z,75.46
2023-03-08T00:55:03.719Z,75.40
2023-03-08T00:57:30.102Z,75.44
2023-03-08T00:59:56.711Z,75.56
2023-03-08T01:02:24.006Z,75.55
2023-03-08T01:04:50.403Z,75.94
2023-03-08T01:07:17.032Z,75.91
2023-03-08T01:09:43.442Z,75.71
2023-03-08T01:12:09.942Z,75.75
2023-03-08T01:14:37.288Z,75.68
2023-03-08T01:17:04.017Z,75.95
2023-03-08T01:19:30.600Z,75.91
2023-03-08T01:21:57.900Z,76.01
2023-03-08T01:24:24.531Z,75.79
2023-03-08T01:26:51.132Z,75.78
2023-03-08T01:29:17.883Z,75.82
2023-03-08T01:31:45.129Z,75.57
2023-03-08T01:34:11.656Z,75.49
2023-03-08T01:36:38.324Z,75.65
2023-03-08T01:39:04.813Z,75.66
2023-03-08T01:41:31.617Z,76.00
2023-03-08T01:43:58.628Z,75.93
2023-03-08T01:46:35.437Z,76.65
2023-03-08T01:49:26.562Z,75.88
2023-03-08T01:52:11.938Z,76.26
2023-03-08T01:54:41.288Z,76.08
2023-03-08T01:57:19.429Z,76.06
2023-03-08T01:59:46.826Z,76.83
2023-03-08T02:02:13.204Z,76.68
2023-03-08T02:04:40.426Z,76.31
2023-03-08T02:07:09.381Z,76.26
2023-03-08T02:09:36.286Z,76.31
2023-03-08T02:12:07.395Z,76.50
2023-03-08T02:14:34.315Z,76.87
2023-03-08T02:17:00.710Z,76.65
2023-03-08T02:19:31.400Z,76.87
2023-03-08T02:21:57.689Z,76.71
2023-03-08T02:24:24.679Z,76.60
2023-03-08T02:26:54.989Z,76.59
2023-03-08T02:29:21.285Z,76.66
2023-03-08T02:31:47.531Z,76.75
2023-03-08T02:34:13.869Z,76.68
2023-03-08T02:36:40.188Z,76.60
2023-03-08T02:39:06.637Z,76.55
2023-03-08T02:41:32.905Z,76.51
2023-03-08T02:43:59.146Z,76.57
2023-03-08T02:46:25.414Z,76.33
2023-03-08T02:48:51.665Z,76.29
2023-03-08T02:51:18.051Z,76.52
2023-03-08T02:53:44.487Z,76.68
2023-03-08T02:56:11.024Z,76.47
2023-03-08T02:58:37.422Z,76.56
2023-03-08T03:01:09.509Z,76.40
2023-03-08T03:03:36.218Z,76.35
2023-03-08T03:06:02.584Z,76.29
2023-03-08T03:08:30.715Z,76.29
2023-03-08T03:10:57.050Z,76.37
2023-03-08T03:13:23.344Z,76.67
2023-03-08T03:15:50.395Z,76.50
2023-03-08T03:18:16.983Z,76.52
2023-03-08T03:20:43.240Z,76.71
2023-03-08T03:23:09.678Z,76.62
2023-03-08T03:25:44.290Z,76.61
2023-03-08T03:28:12.998Z,76.61
2023-03-08T03:30:39.776Z,76.65
2023-03-08T03:33:09.009Z,76.59
2023-03-08T03:35:37.058Z,76.56
2023-03-08T03:38:03.411Z,76.55
2023-03-08T03:40:29.906Z,76.47
2023-03-08T03:42:59.423Z,76.41
2023-03-08T03:45:25.754Z,76.52
2023-03-08T03:47:52.642Z,76.37
2023-03-08T03:50:19.146Z,76.25
2023-03-08T03:52:51.116Z,76.17
2023-03-08T03:55:17.565Z,76.23
2023-03-08T03:57:44.183Z,76.11
2023-03-08T04:00:13.632Z,76.16
2023-03-08T04:02:40.005Z,76.07
2023-03-08T04:05:07.283Z,76.02
2023-03-08T04:07:34.488Z,76.04
2023-03-08T04:10:01.130Z,76.04
2023-03-08T04:12:27.565Z,76.22
2023-03-08T04:14:55.053Z,76.58
2023-03-08T04:17:22.601Z,76.72
2023-03-08T04:19:51.817Z,76.84
2023-03-08T04:22:19.140Z,76.70
2023-03-08T04:24:52.215Z,76.47
2023-03-08T04:27:23.558Z,76.34
2023-03-08T04:29:50.007Z,76.35
2023-03-08T04:32:16.979Z,76.34
2023-03-08T04:34:49.263Z,76.44
2023-03-08T04:37:17.524Z,76.29
2023-03-08T04:39:47.017Z,76.22
2023-03-08T04:42:13.619Z,76.22
2023-03-08T04:44:40.175Z,76.14
2023-03-08T04:47:07.060Z,76.22
2023-03-08T04:49:41.496Z,76.12
2023-03-08T04:52:07.821Z,76.04
2023-03-08T04:54:35.180Z,76.03
2023-03-08T04:57:04.761Z,76.00
2023-03-08T04:59:32.152Z,76.03
2023-03-08T05:02:00.478Z,76.02
2023-03-08T05:04:27.606Z,76.01
2023-03-08T05:06:53.910Z,75.93
2023-03-08T05:09:23.223Z,75.95
2023-03-08T05:11:50.496Z,76.01
2023-03-08T05:14:16.888Z,76.00
2023-03-08T05:16:43.272Z,76.04
2023-03-08T05:19:10.137Z,75.97
2023-03-08T05:21:43.224Z,76.02
2023-03-08T05:24:09.541Z,76.17
2023-03-08T05:26:36.443Z,76.26
2023-03-08T05:29:03.298Z,76.22
2023-03-08T05:31:30.773Z,76.22
2023-03-08T05:33:58.580Z,75.79
2023-03-08T05:36:30.432Z,76.04
2023-03-08T05:38:57.123Z,75.74
2023-03-08T05:41:27.756Z,75.82
2023-03-08T05:43:54.757Z,75.76
2023-03-08T05:46:21.288Z,75.39
2023-03-08T05:48:47.941Z,75.25
2023-03-08T05:51:16.900Z,74.46
2023-03-08T05:53:44.505Z,74.79
2023-03-08T05:56:12.761Z,74.81
2023-03-08T05:58:43.571Z,74.63
2023-03-08T06:01:17.368Z,74.63
2023-03-08T06:03:47.632Z,74.44
2023-03-08T06:06:19.778Z,74.56
2023-03-08T06:21:53.843Z,73.39
2023-03-08T06:24:21.641Z,73.60
2023-03-08T06:26:48.797Z,72.76
2023-03-08T06:29:15.565Z,73.10
2023-03-08T06:31:41.921Z,72.76
2023-03-08T06:34:08.376Z,71.98
2023-03-08T06:36:43.210Z,72.23
2023-03-08T06:39:09.532Z,72.30
2023-03-08T06:41:35.877Z,72.47
2023-03-08T06:44:02.566Z,72.22
2023-03-08T06:46:29.081Z,72.37
2023-03-08T06:48:55.523Z,71.89
2023-03-08T06:51:22.557Z,71.88
2023-03-08T06:53:49.298Z,71.54
2023-03-08T06:56:18.652Z,71.32
2023-03-08T06:58:45.006Z,70.94
2023-03-08T07:01:12.320Z,71.56
2023-03-08T07:03:38.797Z,71.30
2023-03-08T07:06:06.815Z,70.81
2023-03-08T07:08:33.380Z,69.10
2023-03-08T07:10:59.832Z,70.47
2023-03-08T07:13:26.413Z,69.57
2023-03-08T07:15:52.780Z,69.67
2023-03-08T07:18:20.022Z,69.39
2023-03-08T07:20:54.951Z,69.84
2023-03-08T07:23:21.320Z,69.30
2023-03-08T07:25:47.623Z,68.62
2023-03-08T07:28:13.908Z,68.04
2023-03-08T07:30:40.411Z,67.99
2023-03-08T07:33:10.843Z,67.57
2023-03-08T07:35:39.869Z,67.91
2023-03-08T07:38:06.472Z,68.02
2023-03-08T07:40:32.846Z,68.32
2023-03-08T07:42:59.190Z,67.83
2023-03-08T07:45:43.678Z,68.09
2023-03-08T07:48:09.962Z,68.23
2023-03-08T07:50:36.328Z,68.55
2023-03-08T07:53:02.679Z,68.84
2023-03-08T07:55:29.191Z,69.09
2023-03-08T07:57:55.632Z,69.30
2023-03-08T08:00:23.138Z,69.57
2023-03-08T08:02:50.863Z,70.04
2023-03-08T08:05:19.244Z,70.37
2023-03-08T08:07:46.647Z,70.75
2023-03-08T08:10:13.377Z,71.02
2023-03-08T08:12:42.815Z,71.59
2023-03-08T08:15:34.876Z,71.80
2023-03-08T08:19:01.167Z,72.32
2023-03-08T08:22:05.847Z,72.56
2023-03-08T08:24:34.917Z,72.78
2023-03-08T08:27:01.238Z,72.60
2023-03-08T08:29:27.803Z,72.32
2023-03-08T08:31:54.140Z,72.14
2023-03-08T08:34:20.418Z,71.96
2023-03-08T08:36:46.889Z,71.87
2023-03-08T08:39:13.323Z,71.95
2023-03-08T08:41:39.741Z,72.09
2023-03-08T08:44:06.135Z,72.03
2023-03-08T08:46:32.491Z,71.95
2023-03-08T08:48:59.103Z,72.00
2023-03-08T08:51:25.801Z,72.27
2023-03-08T08:53:52.878Z,72.36
2023-03-08T08:56:27.204Z,72.52
2023-03-08T08:59:01.838Z,72.49
2023-03-08T09:01:29.453Z,72.57
2023-03-08T09:03:55.880Z,72.66
2023-03-08T09:06:22.956Z,72.78
2023-03-08T09:08:53.400Z,72.82
2023-03-08T09:11:19.763Z,72.76
2023-03-08T09:13:46.268Z,72.90
2023-03-08T09:16:17.206Z,72.81
2023-03-08T09:18:43.850Z,72.79
2023-03-08T09:21:10.329Z,72.55
2023-03-08T09:23:36.646Z,72.28
2023-03-08T09:26:03.092Z,72.37
2023-03-08T09:28:29.450Z,71.92
2023-03-08T09:34:45.419Z,71.27
2023-03-08T09:37:11.800Z,71.35
2023-03-08T09:39:42.936Z,71.08
2023-03-08T09:51:05.105Z,68.44
2023-03-08T09:54:03.583Z,70.49
2023-03-08T09:56:30.595Z,70.00
2023-03-08T09:59:05.001Z,70.75
2023-03-08T10:01:37.645Z,70.10
2023-03-08T10:04:11.955Z,62.35
2023-03-08T10:06:47.957Z,67.19
2023-03-08T10:09:32.655Z,63.91
2023-03-08T10:11:59.529Z,64.75
2023-03-08T10:14:29.546Z,63.60
2023-03-08T10:17:02.541Z,62.09
2023-03-08T10:19:41.290Z,63.59
2023-03-08T10:22:14.520Z,64.41
2023-03-08T10:24:44.918Z,65.55
2023-03-08T10:27:25.011Z,64.65
2023-03-08T10:29:52.301Z,67.80
2023-03-08T10:32:19.007Z,65.29
2023-03-08T10:34:45.480Z,66.42
2023-03-08T10:37:12.172Z,62.53
2023-03-08T10:39:47.719Z,59.04
2023-03-08T10:42:14.787Z,57.41
2023-03-08T10:44:43.770Z,59.34
2023-03-08T10:47:29.058Z,59.66
2023-03-08T10:50:10.637Z,59.19
2023-03-08T10:52:37.074Z,60.66
2023-03-08T10:55:03.442Z,60.63
2023-03-08T10:57:30.020Z,58.48
2023-03-08T10:59:59.072Z,58.99
2023-03-08T11:02:25.410Z,60.16
2023-03-08T11:04:53.033Z,59.74
2023-03-08T11:07:24.141Z,60.59
2023-03-08T11:09:50.629Z,59.60
2023-03-08T11:12:21.496Z,58.00
2023-03-08T11:14:48.367Z,56.61
2023-03-08T11:17:21.975Z,52.59
2023-03-08T11:20:06.962Z,53.86
2023-03-08T11:22:33.948Z,52.51
2023-03-08T11:25:04.552Z,52.24
2023-03-08T11:27:40.464Z,52.19
2023-03-08T11:30:35.323Z,48.45
2023-03-08T11:33:08.298Z,47.67
2023-03-08T11:35:44.209Z,46.89
2023-03-08T11:38:16.389Z,49.33
2023-03-08T11:41:02.005Z,48.84
2023-03-08T11:43:31.297Z,49.77
2023-03-08T11:46:04.034Z,50.14
2023-03-08T11:48:33.720Z,50.59
2023-03-08T11:51:05.198Z,51.55
2023-03-08T11:53:31.489Z,51.45
2023-03-08T11:56:11.474Z,51.20
2023-03-08T11:58:41.971Z,52.38
2023-03-08T12:01:31.610Z,53.08
2023-03-08T12:04:03.288Z,53.15
2023-03-08T12:06:42.016Z,53.71
2023-03-08T12:09:27.017Z,54.39
2023-03-08T12:11:57.629Z,54.12
2023-03-08T12:14:29.617Z,54.46
2023-03-08T12:17:03.666Z,54.88
2023-03-08T12:19:29.993Z,54.96
2023-03-08T12:22:08.379Z,55.11
2023-03-08T12:24:50.083Z,55.31
2023-03-08T12:27:33.946Z,54.15
2023-03-08T12:30:00.187Z,53.80
2023-03-08T12:32:27.152Z,55.84
2023-03-08T12:35:02.060Z,56.49
2023-03-08T12:37:29.058Z,56.12
2023-03-08T12:39:55.423Z,53.98
2023-03-08T12:42:48.091Z,52.24
2023-03-08T12:45:20.484Z,48.55
2023-03-08T12:48:05.609Z,47.91
2023-03-08T12:50:35.563Z,48.16
2023-03-08T12:53:01.920Z,47.59
2023-03-08T12:55:29.436Z,48.41
2023-03-08T12:57:56.617Z,47.98
2023-03-08T13:00:24.998Z,48.88
2023-03-08T13:03:02.869Z,49.05
2023-03-08T13:05:29.318Z,50.11
2023-03-08T13:08:01.465Z,50.61
2023-03-08T13:10:35.444Z,51.10
2023-03-08T13:13:20.467Z,51.22
2023-03-08T13:16:04.553Z,50.19
2023-03-08T13:18:30.943Z,51.44
2023-03-08T13:21:00.254Z,50.17
2023-03-08T13:23:34.623Z,50.75
2023-03-08T13:26:01.002Z,51.12
2023-03-08T13:28:46.075Z,50.77
2023-03-08T13:31:17.884Z,50.80
2023-03-08T13:33:48.651Z,51.14
2023-03-08T13:36:18.360Z,50.86
2023-03-08T13:38:53.553Z,50.73
2023-03-08T13:41:29.779Z,50.80
2023-03-08T13:43:59.935Z,51.71
2023-03-08T13:46:27.096Z,50.84
2023-03-08T13:48:53.575Z,51.25
2023-03-08T13:51:22.319Z,49.42
2023-03-08T13:53:48.940Z,50.43
2023-03-08T13:56:23.529Z,50.34
2023-03-08T13:58:50.742Z,50.49
2023-03-08T14:01:19.025Z,50.86
2023-03-08T14:03:46.389Z,50.25
2023-03-08T14:06:30.397Z,50.17
2023-03-08T14:08:57.393Z,49.76
2023-03-08T14:11:36.542Z,49.84
2023-03-08T14:14:05.148Z,47.40
2023-03-08T14:16:31.708Z,46.77
2023-03-08T14:18:59.174Z,48.67
2023-03-08T14:21:29.508Z,48.86
2023-03-08T14:24:00.367Z,49.46
2023-03-08T14:26:29.123Z,48.65
2023-03-08T14:29:22.106Z,49.46
2023-03-08T14:31:57.165Z,49.52
2023-03-08T14:34:24.965Z,49.69
2023-03-08T14:36:56.184Z,50.40
2023-03-08T14:39:23.878Z,50.46
2023-03-08T14:41:50.698Z,50.65
2023-03-08T14:44:19.359Z,51.03
2023-03-08T14:46:46.134Z,51.32
2023-03-08T14:49:20.466Z,51.54
2023-03-08T14:51:46.875Z,51.29
2023-03-08T14:54:19.515Z,51.30
2023-03-08T14:56:46.031Z,51.39
2023-03-08T14:59:25.181Z,51.80
2023-03-08T15:01:54.821Z,52.15
2023-03-08T15:04:23.260Z,52.28
2023-03-08T15:06:50.519Z,52.25
2023-03-08T15:09:18.544Z,52.26
2023-03-08T15:11:45.945Z,52.52
2023-03-08T15:14:12.820Z,52.52
2023-03-08T15:16:39.713Z,52.92
2023-03-08T15:19:06.148Z,53.18
2023-03-08T15:21:32.747Z,53.25
2023-03-08T15:23:59.910Z,53.60
2023-03-08T15:26:27.753Z,54.53
2023-03-08T15:28:54.672Z,55.34
2023-03-08T15:31:20.975Z,55.31
2023-03-08T15:33:47.308Z,55.41
2023-03-08T15:36:14.770Z,55.53
2023-03-08T15:38:41.584Z,55.79
2023-03-08T15:41:11.840Z,56.16
2023-03-08T15:43:38.206Z,57.03
2023-03-08T15:46:04.719Z,57.73
2023-03-08T15:48:31.086Z,58.37
2023-03-08T15:50:57.645Z,58.90
2023-03-08T15:53:34.917Z,59.61
2023-03-08T15:56:02.462Z,62.68
2023-03-08T15:58:28.898Z,61.02
2023-03-08T16:00:55.177Z,62.75
2023-03-08T16:03:22.182Z,62.23
2023-03-08T16:05:48.912Z,62.40
2023-03-08T16:08:15.195Z,62.84
2023-03-08T16:10:42.563Z,63.52
2023-03-08T16:13:09.334Z,65.12
2023-03-08T16:15:38.447Z,66.19
2023-03-08T16:18:04.765Z,66.54
2023-03-08T16:20:31.697Z,65.78
2023-03-08T16:22:57.967Z,65.71
2023-03-08T16:25:27.305Z,65.76
2023-03-08T16:27:54.389Z,66.19
2023-03-08T16:30:20.798Z,70.48
2023-03-08T16:32:47.190Z,68.30
2023-03-08T16:35:13.627Z,68.99
2023-03-08T16:37:39.915Z,68.65
2023-03-08T16:40:07.588Z,67.20
2023-03-08T16:42:34.141Z,67.07
2023-03-08T16:45:00.865Z,67.22
2023-03-08T16:47:27.579Z,67.49
2023-03-08T16:49:54.026Z,68.57
2023-03-08T16:52:20.332Z,68.68
2023-03-08T16:54:46.693Z,68.99
2023-03-08T16:57:19.141Z,69.54
2023-03-08T16:59:46.592Z,70.35
2023-03-08T17:02:14.385Z,69.89
2023-03-08T17:04:40.878Z,71.69
2023-03-08T17:07:07.246Z,71.54
2023-03-08T17:09:34.332Z,70.32
2023-03-08T17:12:01.524Z,70.37
2023-03-08T17:14:27.901Z,71.08
2023-03-08T17:16:54.270Z,72.95
2023-03-08T17:19:20.874Z,72.12
2023-03-08T17:21:49.427Z,71.55
2023-03-08T17:24:17.280Z,71.52
2023-03-08T17:26:47.320Z,71.53
2023-03-08T17:29:14.047Z,71.46
2023-03-08T17:31:41.364Z,71.53
2023-03-08T17:34:08.189Z,72.63
2023-03-08T17:36:34.574Z,72.89
2023-03-08T17:39:01.361Z,73.75
2023-03-08T17:41:27.925Z,72.49
2023-03-08T17:43:54.441Z,72.15
2023-03-08T17:46:22.540Z,72.08
2023-03-08T17:48:49.276Z,72.23
2023-03-08T17:51:17.235Z,72.12
2023-03-08T17:53:44.404Z,72.02
2023-03-08T17:56:12.201Z,72.01
2023-03-08T17:58:39.038Z,71.93
2023-03-08T18:01:06.466Z,72.10
2023-03-08T18:03:33.259Z,72.04
2023-03-08T18:05:59.573Z,72.82
2023-03-08T18:08:26.506Z,72.53
2023-03-08T18:10:52.840Z,72.65
2023-03-08T18:13:19.539Z,72.58
2023-03-08T18:15:48.580Z,72.53
2023-03-08T18:18:14.928Z,72.36
2023-03-08T18:20:41.367Z,72.51
2023-03-08T18:23:08.088Z,72.50
2023-03-08T18:25:34.641Z,72.53
2023-03-08T18:28:02.764Z,72.46
2023-03-08T18:30:29.952Z,72.51
2023-03-08T18:32:56.379Z,72.64
2023-03-08T18:35:25.499Z,72.70
2023-03-08T18:37:52.633Z,72.83
2023-03-08T18:40:19.332Z,72.92
2023-03-08T18:42:45.991Z,72.98
2023-03-08T18:45:12.904Z,72.94
2023-03-08T18:47:40.122Z,72.95
2023-03-08T18:50:07.601Z,72.96
2023-03-08T18:52:34.601Z,73.19
2023-03-08T18:55:23.762Z,73.65
2023-03-08T18:57:59.490Z,73.92
2023-03-08T19:00:26.303Z,73.67
2023-03-08T19:02:52.883Z,73.60
2023-03-08T19:05:21.261Z,73.70
2023-03-08T19:07:51.727Z,73.81
2023-03-08T19:10:20.714Z,73.74
2023-03-08T19:12:47.722Z,73.75
2023-03-08T19:15:15.239Z,73.77
2023-03-08T19:17:42.553Z,73.79
2023-03-08T19:20:09.483Z,73.86
2023-03-08T19:22:37.430Z,73.89
2023-03-08T19:25:04.049Z,74.11
2023-03-08T19:27:35.057Z,74.24
2023-03-08T19:30:02.573Z,74.70
2023-03-08T19:32:29.696Z,74.93
2023-03-08T19:34:56.325Z,74.68
2023-03-08T19:37:37.608Z,74.59
2023-03-08T19:40:08.001Z,75.04
2023-03-08T19:42:44.674Z,74.94
2023-03-08T19:45:12.312Z,75.07
2023-03-08T19:47:39.783Z,75.00
2023-03-08T19:50:06.880Z,75.09
2023-03-08T19:52:34.999Z,75.35
2023-03-08T19:55:02.204Z,75.51
2023-03-08T19:57:29.768Z,75.67
2023-03-08T19:59:58.570Z,75.35
2023-03-08T20:02:26.460Z,75.66
2023-03-08T20:04:53.738Z,75.56
2023-03-08T20:07:24.930Z,75.58
2023-03-08T20:09:52.419Z,75.52
2023-03-08T20:12:19.632Z,75.45
2023-03-08T20:14:46.328Z,75.38
2023-03-08T20:17:13.041Z,75.35
2023-03-08T20:19:39.859Z,75.41
2023-03-08T20:22:06.783Z,75.49
2023-03-08T20:24:33.448Z,75.55
2023-03-08T20:27:01.121Z,75.70
2023-03-08T20:29:27.726Z,75.81
2023-03-08T20:31:54.328Z,75.68
2023-03-08T20:34:20.901Z,75.81
2023-03-08T20:36:47.439Z,75.89
2023-03-08T20:39:13.974Z,75.95
2023-03-08T20:41:40.528Z,76.33
2023-03-08T20:44:09.880Z,76.48
2023-03-08T20:46:36.485Z,76.48
2023-03-08T20:49:03.054Z,76.48
2023-03-08T20:51:40.302Z,76.33
2023-03-08T20:54:06.997Z,76.18
2023-03-08T20:56:33.698Z,76.34
2023-03-08T20:59:00.289Z,76.52
2023-03-08T21:01:28.605Z,76.90
2023-03-08T21:03:55.064Z,77.77
2023-03-08T21:06:23.342Z,77.61
2023-03-08T21:08:49.766Z,76.99
2023-03-08T21:11:17.041Z,77.78
2023-03-08T21:13:44.032Z,78.29
2023-03-08T21:16:11.569Z,78.77
2023-03-08T21:18:38.293Z,79.82
2023-03-08T21:21:05.119Z,78.80
2023-03-08T21:23:31.595Z,79.40
2023-03-08T21:25:59.135Z,79.75
2023-03-08T21:28:25.695Z,79.55
2023-03-08T21:30:52.095Z,78.69
2023-03-08T21:33:18.506Z,78.75
2023-03-08T21:35:44.968Z,78.05
2023-03-08T21:38:11.387Z,77.88
2023-03-08T21:40:38.706Z,78.36
2023-03-08T21:43:05.424Z,77.87
2023-03-08T21:45:32.805Z,77.67
2023-03-08T21:47:59.156Z,77.89
2023-03-08T21:50:26.747Z,77.81
2023-03-08T21:52:54.218Z,77.89
2023-03-08T21:55:20.522Z,78.77
2023-03-08T21:57:47.056Z,79.10
2023-03-08T22:00:16.588Z,78.78
2023-03-08T22:02:43.705Z,79.40
2023-03-08T22:05:13.001Z,79.33
2023-03-08T22:07:41.588Z,78.63
2023-03-08T22:10:09.782Z,78.29
2023-03-08T22:12:36.103Z,78.26
2023-03-08T22:15:02.783Z,78.40
2023-03-08T22:17:29.106Z,78.84
2023-03-08T22:19:55.426Z,78.88
2023-03-08T22:22:21.769Z,78.98
2023-03-08T22:24:48.141Z,79.01
2023-03-08T22:27:14.481Z,79.27
2023-03-08T22:29:40.948Z,79.28
2023-03-08T22:32:07.359Z,79.37
2023-03-08T22:34:34.128Z,79.92
2023-03-08T22:37:00.485Z,79.87
2023-03-08T22:39:27.272Z,79.96
2023-03-08T22:41:53.603Z,80.27
2023-03-08T22:44:20.035Z,80.07
2023-03-08T22:46:46.524Z,80.09
2023-03-08T22:49:13.444Z,80.00
2023-03-08T22:51:41.234Z,79.95
2023-03-08T22:54:13.386Z,80.08
2023-03-08T22:56:39.701Z,80.02
2023-03-08T22:59:06.127Z,80.03
2023-03-08T23:01:32.606Z,80.11
2023-03-08T23:04:00.070Z,80.23
2023-03-08T23:06:27.513Z,80.18
2023-03-08T23:08:54.715Z,80.33
2023-03-08T23:11:21.109Z,80.49
2023-03-08T23:13:47.467Z,80.59
2023-03-08T23:16:14.882Z,80.59
2023-03-08T23:18:41.790Z,80.71
2023-03-08T23:21:09.597Z,81.13
2023-03-08T23:23:36.036Z,80.94
2023-03-08T23:26:06.568Z,81.17
2023-03-08T23:28:33.494Z,81.12
2023-03-08T23:31:00.047Z,81.09
2023-03-08T23:33:26.560Z,81.16
2023-03-08T23:35:52.940Z,81.23
2023-03-08T23:38:19.316Z,81.48
2023-03-08T23:40:45.679Z,81.31
2023-03-08T23:43:11.991Z,81.74
2023-03-08T23:45:38.749Z,82.00
2023-03-08T23:48:05.499Z,81.94
2023-03-08T23:50:31.855Z,81.49
2023-03-08T23:52:58.213Z,81.38
2023-03-08T23:55:24.620Z,81.46
2023-03-08T23:57:50.939Z,81.88
